createdAt,value
2023-05-20T00:00:53.235Z,6.97
2023-05-20T00:03:43.556Z,7.25
2023-05-20T00:06:32.429Z,6.95
2023-05-20T00:09:21.233Z,6.47
2023-05-20T00:12:10.251Z,5.57
2023-05-20T00:14:59.193Z,6.53
2023-05-20T00:17:48.009Z,6.22
2023-05-20T00:20:38.217Z,5.68
2023-05-20T00:23:26.999Z,4.95
2023-05-20T00:26:15.788Z,5.90
2023-05-20T00:29:04.533Z,5.47
2023-05-20T00:31:53.295Z,5.45
2023-05-20T00:34:42.180Z,5.65
2023-05-20T00:37:32.400Z,5.10
2023-05-20T00:40:21.956Z,5.57
2023-05-20T00:43:11.437Z,4.95
2023-05-20T00:46:00.350Z,6.05
2023-05-20T00:48:49.272Z,5.93
2023-05-20T00:51:38.180Z,5.18
2023-05-20T00:54:28.574Z,5.10
2023-05-20T00:57:18.510Z,5.18
2023-05-20T01:00:10.492Z,5.60
2023-05-20T01:02:59.560Z,5.03
2023-05-20T01:05:48.569Z,5.93
2023-05-20T01:08:37.284Z,5.65
2023-05-20T01:11:29.240Z,5.57
2023-05-20T01:14:19.752Z,5.80
2023-05-20T01:17:12.670Z,5.50
2023-05-20T01:20:02.218Z,5.63
2023-05-20T01:22:55.069Z,5.82
2023-05-20T01:25:43.842Z,5.20
2023-05-20T01:28:32.564Z,5.38
2023-05-20T01:31:25.597Z,6.20
2023-05-20T01:34:14.565Z,5.90
2023-05-20T01:37:03.811Z,6.00
2023-05-20T01:39:54.287Z,6.35
2023-05-20T01:42:43.971Z,5.28
2023-05-20T01:45:33.260Z,6.00
2023-05-20T01:48:22.164Z,6.32
2023-05-20T01:51:10.926Z,6.70
2023-05-20T01:53:59.675Z,6.20
2023-05-20T01:56:49.763Z,6.80
2023-05-20T01:59:38.492Z,6.10
2023-05-20T02:02:27.398Z,6.65
2023-05-20T02:05:16.328Z,6.18
2023-05-20T02:08:05.166Z,6.30
2023-05-20T02:10:53.942Z,6.70
2023-05-20T02:13:44.149Z,5.97
2023-05-20T02:16:32.982Z,5.78
2023-05-20T02:19:23.836Z,6.07
2023-05-20T02:22:12.955Z,8.45
2023-05-20T02:25:01.782Z,6.30
2023-05-20T02:27:50.577Z,6.82
2023-05-20T02:30:41.054Z,6.82
2023-05-20T02:33:29.873Z,6.68
2023-05-20T02:36:18.816Z,6.88
2023-05-20T02:39:07.629Z,8.07
2023-05-20T02:41:56.397Z,7.30
2023-05-20T02:44:45.180Z,7.05
2023-05-20T02:47:35.301Z,6.85
2023-05-20T02:50:24.031Z,6.78
2023-05-20T02:53:12.769Z,6.35
2023-05-20T02:56:01.665Z,7.30
2023-05-20T02:58:50.537Z,6.97
2023-05-20T03:01:40.507Z,6.85
2023-05-20T03:04:31.793Z,7.30
2023-05-20T03:07:21.689Z,7.00
2023-05-20T03:10:11.658Z,6.90
2023-05-20T03:13:00.449Z,7.15
2023-05-20T03:15:49.295Z,7.07
2023-05-20T03:18:38.083Z,8.10
2023-05-20T03:21:28.232Z,7.45
2023-05-20T03:24:16.978Z,7.47
2023-05-20T03:27:05.953Z,7.82
2023-05-20T03:29:55.009Z,7.90
2023-05-20T03:32:44.381Z,7.55
2023-05-20T03:35:33.463Z,6.95
2023-05-20T03:38:23.752Z,7.40
2023-05-20T03:41:12.698Z,7.70
2023-05-20T03:44:01.427Z,8.20
2023-05-20T03:46:50.318Z,7.50
2023-05-20T03:49:40.450Z,7.05
2023-05-20T03:52:29.270Z,7.22
2023-05-20T03:55:20.632Z,7.50
2023-05-20T03:58:09.456Z,8.05
2023-05-20T04:00:58.256Z,8.18
2023-05-20T04:03:47.139Z,8.25
2023-05-20T04:06:36.024Z,8.68
2023-05-20T04:09:24.872Z,8.20
2023-05-20T04:12:15.014Z,8.48
2023-05-20T04:15:03.827Z,7.97
2023-05-20T04:17:52.629Z,8.38
2023-05-20T04:20:42.321Z,8.57
2023-05-20T04:23:31.073Z,9.35
2023-05-20T04:26:20.728Z,9.15
2023-05-20T04:29:11.953Z,8.73
2023-05-20T04:32:01.224Z,9.55
2023-05-20T04:34:50.762Z,9.63
2023-05-20T04:37:39.720Z,9.32
2023-05-20T04:40:28.853Z,9.40
2023-05-20T04:43:17.678Z,10.40
2023-05-20T04:46:07.950Z,10.10
2023-05-20T04:48:56.802Z,9.52
2023-05-20T04:51:46.872Z,9.10
2023-05-20T04:54:35.654Z,10.65
2023-05-20T04:57:25.696Z,10.02
2023-05-20T05:00:14.879Z,10.55
2023-05-20T05:03:05.076Z,10.65
2023-05-20T05:05:57.490Z,10.02
2023-05-20T05:08:46.723Z,10.77
2023-05-20T05:11:36.010Z,9.07
2023-05-20T05:14:24.790Z,10.55
2023-05-20T05:17:13.615Z,10.55
2023-05-20T05:20:03.762Z,10.48
2023-05-20T05:22:52.532Z,8.70
2023-05-20T05:25:41.290Z,10.60
2023-05-20T05:28:30.136Z,9.55
2023-05-20T05:31:18.919Z,10.10
2023-05-20T05:34:07.779Z,9.73
2023-05-20T05:36:58.057Z,10.77
2023-05-20T05:39:46.866Z,10.88
2023-05-20T05:42:35.805Z,10.43
2023-05-20T05:45:24.631Z,10.88
2023-05-20T05:48:13.450Z,10.75
2023-05-20T05:51:02.229Z,9.48
2023-05-20T05:53:52.421Z,10.32
2023-05-20T05:56:41.188Z,10.13
2023-05-20T05:59:29.999Z,12.98
2023-05-20T06:02:18.788Z,10.93
2023-05-20T06:05:08.071Z,10.80
2023-05-20T06:07:56.835Z,10.80
2023-05-20T06:10:50.380Z,10.93
2023-05-20T06:13:39.127Z,10.88
2023-05-20T06:16:28.016Z,10.70
2023-05-20T06:19:16.835Z,11.52
2023-05-20T06:22:05.871Z,11.75
2023-05-20T06:24:56.520Z,11.65
2023-05-20T06:27:46.628Z,11.55
2023-05-20T06:30:35.351Z,11.02
2023-05-20T06:33:26.056Z,12.52
2023-05-20T06:36:14.913Z,10.30
2023-05-20T06:39:04.284Z,11.10
2023-05-20T06:41:53.624Z,10.77
2023-05-20T06:44:44.021Z,10.45
2023-05-20T06:47:32.849Z,10.30
2023-05-20T06:50:21.725Z,10.90
2023-05-20T06:53:11.104Z,10.10
2023-05-20T06:56:00.006Z,10.00
2023-05-20T06:58:48.854Z,11.38
2023-05-20T07:01:39.176Z,11.57
2023-05-20T07:04:28.040Z,10.98
2023-05-20T07:07:17.519Z,10.48
2023-05-20T07:10:06.972Z,10.52
2023-05-20T07:12:55.685Z,10.50
2023-05-20T07:15:44.417Z,10.70
2023-05-20T07:18:34.640Z,10.32
2023-05-20T07:21:23.388Z,10.13
2023-05-20T07:24:12.110Z,10.57
2023-05-20T07:27:01.092Z,11.15
2023-05-20T07:29:49.980Z,10.90
2023-05-20T07:32:38.834Z,10.13
2023-05-20T07:35:28.982Z,11.77
2023-05-20T07:38:17.974Z,11.70
2023-05-20T07:41:06.800Z,10.77
2023-05-20T07:43:55.562Z,9.80
2023-05-20T07:46:44.330Z,11.13
2023-05-20T07:49:33.110Z,10.60
2023-05-20T07:52:23.280Z,10.40
2023-05-20T07:55:12.057Z,10.57
2023-05-20T07:58:00.968Z,9.77
2023-05-20T08:00:49.728Z,10.55
2023-05-20T08:03:38.596Z,9.05
2023-05-20T08:06:29.665Z,11.18
2023-05-20T08:09:20.323Z,9.75
2023-05-20T08:12:09.433Z,9.95
2023-05-20T08:14:58.177Z,10.55
2023-05-20T08:17:46.930Z,10.73
2023-05-20T08:20:36.068Z,10.02
2023-05-20T08:23:24.822Z,10.82
2023-05-20T08:26:15.167Z,10.15
2023-05-20T08:29:03.938Z,10.00
2023-05-20T08:31:52.999Z,10.52
2023-05-20T08:34:42.836Z,9.43
2023-05-20T08:37:32.087Z,10.23
2023-05-20T08:40:21.420Z,10.15
2023-05-20T08:43:11.592Z,10.18
2023-05-20T08:46:02.362Z,9.35
2023-05-20T08:48:51.470Z,10.80
2023-05-20T08:51:43.007Z,10.40
2023-05-20T08:54:39.073Z,11.18
2023-05-20T08:57:27.992Z,9.95
2023-05-20T09:00:19.424Z,10.30
2023-05-20T09:03:08.162Z,10.48
2023-05-20T09:06:05.181Z,10.75
2023-05-20T09:08:54.105Z,10.43
2023-05-20T09:11:43.050Z,10.45
2023-05-20T09:14:31.992Z,10.90
2023-05-20T09:17:22.893Z,10.98
2023-05-20T09:20:12.401Z,11.13
2023-05-20T09:23:01.766Z,11.60
2023-05-20T09:25:52.220Z,11.60
2023-05-20T09:28:41.104Z,11.25
2023-05-20T09:31:30.123Z,11.02
2023-05-20T09:34:20.660Z,11.88
2023-05-20T09:37:10.264Z,11.63
2023-05-20T09:39:59.688Z,11.95
2023-05-20T09:42:52.659Z,11.82
2023-05-20T09:45:41.431Z,11.95
2023-05-20T09:48:33.952Z,12.40
2023-05-20T09:51:25.494Z,11.95
2023-05-20T09:54:14.474Z,11.75
2023-05-20T09:57:04.050Z,11.45
2023-05-20T09:59:53.315Z,12.85
2023-05-20T10:02:43.877Z,11.45
2023-05-20T10:05:34.257Z,11.57
2023-05-20T10:08:57.003Z,11.90
2023-05-20T10:11:54.778Z,11.85
2023-05-20T10:14:57.005Z,11.02
2023-05-20T10:17:56.955Z,11.95
2023-05-20T10:20:48.922Z,11.27
2023-05-20T10:23:37.497Z,10.27
2023-05-20T10:26:37.218Z,11.90
2023-05-20T10:29:25.801Z,11.45
2023-05-20T10:32:25.934Z,12.70
2023-05-20T10:35:14.526Z,12.20
2023-05-20T10:38:10.800Z,12.00
2023-05-20T10:41:11.374Z,13.15
2023-05-20T10:44:05.065Z,11.35
2023-05-20T10:47:23.824Z,12.20
2023-05-20T10:50:29.048Z,11.57
2023-05-20T10:53:32.390Z,12.77
2023-05-20T10:56:24.098Z,11.90
2023-05-20T10:59:14.474Z,12.13
2023-05-20T11:02:03.476Z,11.80
2023-05-20T11:04:52.301Z,12.10
2023-05-20T11:07:41.244Z,12.27
2023-05-20T11:10:30.120Z,11.55
2023-05-20T11:13:19.899Z,11.90
2023-05-20T11:16:11.135Z,10.55
2023-05-20T11:19:00.389Z,12.73
2023-05-20T11:21:49.335Z,12.30
2023-05-20T11:24:38.133Z,11.27
2023-05-20T11:27:26.884Z,11.68
2023-05-20T11:30:17.074Z,12.45
2023-05-20T11:33:07.367Z,12.30
2023-05-20T11:35:56.388Z,13.38
2023-05-20T11:38:48.015Z,13.52
2023-05-20T11:41:36.847Z,13.93
2023-05-20T11:44:26.447Z,14.55
2023-05-20T11:47:17.610Z,12.77
2023-05-20T11:50:11.435Z,13.80
2023-05-20T11:53:00.874Z,14.05
2023-05-20T11:55:50.484Z,13.35
2023-05-20T11:58:39.254Z,14.00
2023-05-20T12:01:28.975Z,14.63
2023-05-20T12:04:18.494Z,14.13
2023-05-20T12:07:10.412Z,14.50
2023-05-20T12:09:59.189Z,14.35
2023-05-20T12:12:48.440Z,12.35
2023-05-20T12:15:37.246Z,14.60
2023-05-20T12:18:26.160Z,12.55
2023-05-20T12:21:15.006Z,13.25
2023-05-20T12:24:07.069Z,14.25
2023-05-20T12:26:56.017Z,41.20
2023-05-20T12:29:44.758Z,38.53
2023-05-20T12:32:33.659Z,27.13
2023-05-20T12:35:26.355Z,17.73
2023-05-20T12:38:15.003Z,14.93
2023-05-20T12:41:04.849Z,14.48
2023-05-20T12:43:54.292Z,13.07
2023-05-20T12:46:43.536Z,13.50
2023-05-20T12:49:32.122Z,35.08
2023-05-20T12:52:22.782Z,18.35
2023-05-20T12:55:14.684Z,21.60
2023-05-20T12:58:04.833Z,21.45
2023-05-20T13:00:53.674Z,20.65
2023-05-20T13:03:42.239Z,16.95
2023-05-20T13:06:31.400Z,16.25
2023-05-20T13:09:19.861Z,13.00
2023-05-20T13:12:09.150Z,14.30
2023-05-20T13:14:58.971Z,20.02
2023-05-20T13:17:47.540Z,16.33
2023-05-20T13:20:36.231Z,14.63
2023-05-20T13:23:24.845Z,14.85
2023-05-20T13:26:13.580Z,16.05
2023-05-20T13:29:02.591Z,16.25
2023-05-20T13:31:52.451Z,15.73
2023-05-20T13:34:40.951Z,16.52
2023-05-20T13:37:30.047Z,14.48
2023-05-20T13:40:18.825Z,15.75
2023-05-20T13:43:07.582Z,19.55
2023-05-20T13:45:56.502Z,17.73
2023-05-20T13:48:46.814Z,15.82
2023-05-20T13:51:35.822Z,15.50
2023-05-20T13:54:24.613Z,15.68
2023-05-20T13:57:13.425Z,16.27
2023-05-20T14:00:02.223Z,17.02
2023-05-20T14:02:51.126Z,16.15
2023-05-20T14:05:41.637Z,17.20
2023-05-20T14:08:30.351Z,17.40
2023-05-20T14:11:19.342Z,17.52
2023-05-20T14:14:08.073Z,18.95
2023-05-20T14:16:56.847Z,19.10
2023-05-20T14:19:45.626Z,18.63
2023-05-20T14:22:35.808Z,16.50
2023-05-20T14:25:24.622Z,17.00
2023-05-20T14:28:13.398Z,17.88
2023-05-20T14:31:02.207Z,16.67
2023-05-20T14:33:51.021Z,16.42
2023-05-20T14:36:39.947Z,18.05
2023-05-20T14:39:30.153Z,18.23
2023-05-20T14:42:18.977Z,17.67
2023-05-20T14:45:08.216Z,17.27
2023-05-20T14:47:57.230Z,18.10
2023-05-20T14:50:47.695Z,17.77
2023-05-20T14:53:38.337Z,16.42
2023-05-20T14:56:28.617Z,18.73
2023-05-20T14:59:17.466Z,16.98
2023-05-20T15:02:06.476Z,18.23
2023-05-20T15:04:55.321Z,16.75
2023-05-20T15:07:44.856Z,17.88
2023-05-20T15:10:34.592Z,17.50
2023-05-20T15:13:25.096Z,18.50
2023-05-20T15:16:14.027Z,17.92
2023-05-20T15:19:02.937Z,17.83
2023-05-20T15:21:52.411Z,17.17
2023-05-20T15:24:41.235Z,18.73
2023-05-20T15:27:29.997Z,18.80
2023-05-20T15:30:20.243Z,17.85
2023-05-20T15:33:09.065Z,16.83
2023-05-20T15:35:57.960Z,18.73
2023-05-20T15:38:47.187Z,17.92
2023-05-20T15:41:39.872Z,18.90
2023-05-20T15:44:29.804Z,18.65
2023-05-20T15:47:19.999Z,18.27
2023-05-20T15:50:11.180Z,20.50
2023-05-20T15:52:59.984Z,21.75
2023-05-20T15:55:48.714Z,24.08
2023-05-20T15:58:37.435Z,22.58
2023-05-20T16:01:27.082Z,24.48
2023-05-20T16:04:17.456Z,22.88
2023-05-20T16:07:06.581Z,19.98
2023-05-20T16:09:55.368Z,19.80
2023-05-20T16:12:44.127Z,19.45
2023-05-20T16:15:36.331Z,20.13
2023-05-20T16:18:25.340Z,19.33
2023-05-20T16:21:15.592Z,19.23
2023-05-20T16:24:04.390Z,18.50
2023-05-20T16:26:53.244Z,19.77
2023-05-20T16:29:41.975Z,18.92
2023-05-20T16:32:30.700Z,18.77
2023-05-20T16:35:19.472Z,18.52
2023-05-20T16:38:09.599Z,17.38
2023-05-20T16:40:58.299Z,18.48
2023-05-20T16:43:47.065Z,18.10
2023-05-20T16:46:35.829Z,17.65
2023-05-20T16:49:24.620Z,18.50
2023-05-20T16:52:13.408Z,18.58
2023-05-20T16:55:04.712Z,19.05
2023-05-20T16:57:53.621Z,17.63
2023-05-20T17:00:42.367Z,27.75
2023-05-20T17:03:31.306Z,29.67
2023-05-20T17:06:20.261Z,24.73
2023-05-20T17:09:09.038Z,22.63
2023-05-20T17:11:59.216Z,21.55
2023-05-20T17:14:47.992Z,18.52
2023-05-20T17:17:36.855Z,19.52
2023-05-20T17:20:25.696Z,18.40
2023-05-20T17:23:14.858Z,19.25
2023-05-20T17:26:03.651Z,17.83
2023-05-20T17:28:53.804Z,17.38
2023-05-20T17:31:42.528Z,16.98
2023-05-20T17:34:31.329Z,18.38
2023-05-20T17:37:20.093Z,19.65
2023-05-20T17:40:09.416Z,18.27
2023-05-20T17:42:58.150Z,19.13
2023-05-20T17:45:48.447Z,19.98
2023-05-20T17:48:37.255Z,18.83
2023-05-20T17:51:26.269Z,18.05
2023-05-20T17:54:15.155Z,20.52
2023-05-20T17:57:03.885Z,19.83
2023-05-20T17:59:54.509Z,20.77
2023-05-20T18:02:48.195Z,19.48
2023-05-20T18:05:37.147Z,19.73
2023-05-20T18:08:26.308Z,19.70
2023-05-20T18:11:15.114Z,20.63
2023-05-20T18:14:04.115Z,18.13
2023-05-20T18:16:53.133Z,18.40
2023-05-20T18:19:43.266Z,20.05
2023-05-20T18:22:32.088Z,17.92
2023-05-20T18:25:21.047Z,16.35
2023-05-20T18:28:11.167Z,19.55
2023-05-20T18:30:59.970Z,18.98
2023-05-20T18:33:48.730Z,18.15
2023-05-20T18:36:38.900Z,17.42
2023-05-20T18:39:27.619Z,18.65
2023-05-20T18:42:17.147Z,16.55
2023-05-20T18:45:06.488Z,17.65
2023-05-20T18:47:57.684Z,17.63
2023-05-20T18:50:46.555Z,18.63
2023-05-20T18:53:37.081Z,17.45
2023-05-20T18:56:26.504Z,19.02
2023-05-20T18:59:15.342Z,19.60
2023-05-20T19:02:04.145Z,19.77
2023-05-20T19:04:53.105Z,19.35
2023-05-20T19:07:41.887Z,18.15
2023-05-20T19:10:32.040Z,17.95
2023-05-20T19:13:21.692Z,19.30
2023-05-20T19:16:10.600Z,17.85
2023-05-20T19:18:59.544Z,18.83
2023-05-20T19:21:48.357Z,18.33
2023-05-20T19:24:37.172Z,18.27
2023-05-20T19:27:27.268Z,17.63
2023-05-20T19:30:16.066Z,17.95
2023-05-20T19:33:05.671Z,17.67
2023-05-20T19:35:54.444Z,18.65
2023-05-20T19:38:43.166Z,19.10
2023-05-20T19:41:32.004Z,19.50
2023-05-20T19:44:22.853Z,19.33
2023-05-20T19:47:11.600Z,19.10
2023-05-20T19:50:00.339Z,18.92
2023-05-20T19:52:49.196Z,20.02
2023-05-20T19:55:38.768Z,19.92
2023-05-20T19:58:27.834Z,20.55
2023-05-20T20:01:18.666Z,19.45
2023-05-20T20:04:07.607Z,20.52
2023-05-20T20:06:56.530Z,21.45
2023-05-20T20:09:48.260Z,20.10
2023-05-20T20:12:37.045Z,21.05
2023-05-20T20:15:27.099Z,19.42
2023-05-20T20:18:17.359Z,20.95
2023-05-20T20:21:06.461Z,21.08
2023-05-20T20:23:55.239Z,20.90
2023-05-20T20:26:44.000Z,21.33
2023-05-20T20:29:32.854Z,20.15
2023-05-20T20:32:23.549Z,21.70
2023-05-20T20:35:14.456Z,22.35
2023-05-20T20:38:08.429Z,21.63
2023-05-20T20:40:59.353Z,21.88
2023-05-20T20:43:48.161Z,22.90
2023-05-20T20:46:37.599Z,22.23
2023-05-20T20:49:28.400Z,22.33
2023-05-20T20:52:18.780Z,23.88
2023-05-20T20:55:07.938Z,21.60
2023-05-20T20:57:56.750Z,21.10
2023-05-20T21:00:45.793Z,21.15
2023-05-20T21:03:35.204Z,21.65
2023-05-20T21:06:24.055Z,22.35
2023-05-20T21:09:14.297Z,22.23
2023-05-20T21:12:06.542Z,22.63
2023-05-20T21:14:55.533Z,22.95
2023-05-20T21:17:44.370Z,22.05
2023-05-20T21:20:33.134Z,20.98
2023-05-20T21:23:22.141Z,21.27
2023-05-20T21:26:12.278Z,21.88
2023-05-20T21:29:01.086Z,22.48
2023-05-20T21:31:50.331Z,22.52
2023-05-20T21:34:39.112Z,21.83
2023-05-20T21:37:27.834Z,23.23
2023-05-20T21:40:16.586Z,21.83
2023-05-20T21:43:06.786Z,21.92
2023-05-20T21:45:55.540Z,21.40
2023-05-20T21:48:44.285Z,21.80
2023-05-20T21:51:33.032Z,23.15
2023-05-20T21:54:21.776Z,22.88
2023-05-20T21:57:10.567Z,21.98
2023-05-20T22:00:00.686Z,23.65
2023-05-20T22:02:50.806Z,22.08
2023-05-20T22:05:39.588Z,23.00
2023-05-20T22:08:30.815Z,22.58
2023-05-20T22:11:19.864Z,22.05
2023-05-20T22:14:08.737Z,23.17
2023-05-20T22:17:00.147Z,22.08
2023-05-20T22:19:49.902Z,22.30
2023-05-20T22:22:39.159Z,22.60
2023-05-20T22:25:27.890Z,22.88
2023-05-20T22:28:17.351Z,22.70
2023-05-20T22:31:06.314Z,23.15
2023-05-20T22:33:56.562Z,24.33
2023-05-20T22:36:45.426Z,23.25
2023-05-20T22:39:34.314Z,24.73
2023-05-20T22:42:23.134Z,22.40
2023-05-20T22:45:12.217Z,23.52
2023-05-20T22:48:01.907Z,25.23
2023-05-20T22:50:54.159Z,22.90
2023-05-20T22:53:42.980Z,23.45
2023-05-20T22:56:32.568Z,23.63
2023-05-20T22:59:21.343Z,25.40
2023-05-20T23:02:10.128Z,22.27
2023-05-20T23:04:58.886Z,23.10
2023-05-20T23:07:51.167Z,24.23
2023-05-20T23:10:40.074Z,24.13
2023-05-20T23:13:28.868Z,25.60
2023-05-20T23:16:17.776Z,23.13
2023-05-20T23:19:06.754Z,23.10
2023-05-20T23:21:55.710Z,23.90
2023-05-20T23:24:45.822Z,23.70
2023-05-20T23:27:34.672Z,22.63
2023-05-20T23:30:23.849Z,21.55
2023-05-20T23:33:13.163Z,22.42
2023-05-20T23:36:02.907Z,22.27
2023-05-20T23:38:51.662Z,22.45
2023-05-20T23:41:41.755Z,23.73
2023-05-20T23:44:30.544Z,23.20
2023-05-20T23:47:19.715Z,23.38
2023-05-20T23:50:08.868Z,22.48
2023-05-20T23:52:57.674Z,22.42
2023-05-20T23:55:49.491Z,21.77
2023-05-20T23:58:39.793Z,23.23
